Latest Coastal Weather Observations for Hogan Island

IDT60701

Issued at 5:42 pm EST Thursday 17 August 2017 (issued every 10 minutes, with the page automatically refreshed every 10 minutes)

About coastal observations | Map of coastal stations | Coastal observations for TAS | Marine services | Other Formats
Station Details ID: 200838 Name: HOGAN ISLAND Lat: -39.22 Lon: 146.98 Height: 116.0 m
Data from the previous 72 hours. | See also: Recent months at Hogan Island
Date/Time
EST
Temp
°C
Wind Pressure Rain since
9am
mm
Weather Cloud Vis
km
Sea
Height
m
Swell
Dir  Spd
kts
Gust
kts
hPa Trend Height
m
Period
s
Dir
17/05:30pm 8.8 W 38 44 997.3 - 8.0 - - - - - - -
17/05:14pm 8.8 WNW 35 45 997.2 - 8.0 - - - - - - -
17/05:12pm 8.8 WNW 37 46 996.9 - 8.0 - - - - - - -
17/05:00pm 7.8 W 39 46 997.1 - 8.0 - - - - - - -
17/04:55pm 7.8 W 38 48 997.7 - 7.6 - - - - - - -
17/04:51pm 8.0 W 41 48 997.6 - 7.6 - - - - - - -
17/04:40pm 8.8 W 30 41 997.7 - 7.4 - - - - - - -
17/04:38pm 9.5 NW 26 41 996.8 - 7.4 - - - - - - -
17/04:30pm 9.8 WNW 27 33 997.3 - 7.4 - - - - - - -
17/04:00pm 9.5 WNW 33 42 997.1 - 7.4 - - - - - - -
17/03:51pm 9.4 WNW 32 42 997.0 - 7.4 - - - - - - -
17/03:30pm 9.0 WNW 35 41 997.1 - 7.4 - - - - - - -
17/03:01pm 8.7 W 43 53 996.4 - 7.2 - - - - - - -
17/03:00pm 8.6 W 42 51 996.6 - 7.2 - - - - - - -
17/02:30pm 8.3 W 39 47 997.0 - 7.2 - - - - - - -
17/02:10pm 8.2 W 34 44 996.7 - 6.8 - - - - - - -
17/02:00pm 7.7 W 30 37 996.9 - 6.8 - - - - - - -
17/01:51pm 7.5 W 34 46 997.1 - 6.4 - - - - - - -
17/01:37pm 7.0 W 45 55 996.4 - 5.2 - - - - - - -
17/01:30pm 7.4 W 46 55 996.0 - 3.4 - - - - - - -
17/01:29pm 8.2 W 43 51 996.2 - 3.4 - - - - - - -
17/01:26pm 10.0 WNW 43 47 995.6 - 3.4 - - - - - - -
17/01:12pm 10.4 WNW 33 44 995.8 - 3.4 - - - - - - -
17/01:00pm 10.0 WNW 30 37 996.1 - 3.4 - - - - - - -
17/12:30pm 9.1 WNW 27 32 996.7 - 3.4 - - - - - - -
17/12:00pm 8.5 WNW 29 34 997.2 - 3.4 - - - - - - -
17/11:30am 8.9 WNW 30 37 997.6 - 3.2 - - - - - - -
17/11:00am 8.4 WNW 32 39 997.9 - 3.0 - - - - - - -
17/10:54am 8.0 WNW 32 40 997.8 - 2.8 - - - - - - -
17/10:30am 8.2 W 31 36 998.1 - 1.4 - - - - - - -
17/10:09am 7.2 W 35 43 997.9 - 0.6 - - - - - - -
17/10:01am 8.6 WNW 29 41 998.0 - 0.4 - - - - - - -
17/10:00am 10.3 WNW 28 35 998.1 - 0.4 - - - - - - -
17/09:30am 10.1 WNW 30 36 997.8 - 0.4 - - - - - - -
17/09:23am 9.5 WNW 34 44 997.7 - 0.4 - - - - - - -
17/09:12am 8.5 WNW 35 55 997.3 - 0.2 - - - - - - -
17/09:01am 9.6 WNW 49 59 996.8 - 0.0 - - - - - - -
17/09:00am 9.6 WNW 50 59 996.6 - 17.4 - - - - - - -
17/08:56am 9.9 WNW 51 59 996.0 - 17.4 - - - - - - -
17/08:54am 10.3 WNW 38 53 996.8 - 17.4 - - - - - - -
17/08:30am 10.8 WNW 33 41 997.4 - 17.4 - - - - - - -
17/08:21am 10.7 W 29 40 997.2 - 17.4 - - - - - - -
17/08:09am 9.1 W 33 40 997.8 - 17.4 - - - - - - -
17/08:00am 9.9 WNW 33 40 997.6 - 17.4 - - - - - - -
17/07:30am 10.4 WNW 32 37 997.3 - 17.0 - - - - - - -
17/07:16am 9.6 WNW 30 41 997.0 - 17.0 - - - - - - -
17/07:00am 9.1 W 41 50 996.6 - 17.0 - - - - - - -
17/06:30am 11.2 WNW 43 53 995.5 - 16.4 - - - - - - -
17/06:18am 11.3 WNW 41 52 995.6 - 16.4 - - - - - - -
17/06:00am 11.0 WNW 40 47 996.0 - 16.4 - - - - - - -
17/05:30am 11.0 WNW 39 49 995.9 - 16.4 - - - - - - -
17/05:00am 11.0 WNW 43 55 995.6 - 16.4 - - - - - - -
17/04:56am 11.0 WNW 43 55 995.1 - 16.4 - - - - - - -
17/04:30am 10.7 WNW 42 49 995.5 - 16.4 - - - - - - -
17/04:00am 10.4 WNW 42 47 995.1 - 16.4 - - - - - - -
17/03:30am 10.6 WNW 39 45 995.6 - 16.4 - - - - - - -
17/03:05am 10.5 WNW 38 48 995.7 - 16.4 - - - - - - -
17/03:00am 10.2 WNW 38 47 995.9 - 16.4 - - - - - - -
17/02:30am 10.4 WNW 41 49 995.7 - 16.4 - - - - - - -
17/02:10am 9.2 WNW 42 61 995.5 - 16.4 - - - - - - -
17/02:00am 8.9 WNW 53 68 994.6 - 16.2 - - - - - - -
17/01:56am 9.0 WNW 51 63 995.3 - 16.0 - - - - - - -
17/01:53am 9.1 WNW 50 57 995.3 - 16.0 - - - - - - -
17/01:32am 7.8 W 39 59 996.4 - 14.6 - - - - - - -
17/01:30am 8.4 WNW 37 47 997.0 - 13.8 - - - - - - -
17/01:29am 8.7 WNW 37 47 997.3 - 13.6 - - - - - - -
17/01:00am 10.7 WNW 41 48 996.2 - 12.4 - - - - - - -
17/12:45am 10.2 WNW 44 54 996.3 - 12.4 - - - - - - -
17/12:30am 11.0 WNW 46 53 996.1 - 12.2 - - - - - - -
17/12:00am 11.1 WNW 42 50 996.5 - 12.2 - - - - - - -
 
Date/Time
EST
Temp
°C
Wind Pressure Rain since
9am
mm
Weather Cloud Vis
km
Sea
Height
m
Swell
Dir  Spd
kts
Gust
kts
hPa Trend Height
m
Period
s
Dir
16/11:30pm 11.1 WNW 39 45 996.8 - 12.2 - - - - - - -
16/11:04pm 10.8 WNW 32 42 997.1 - 12.2 - - - - - - -
16/11:00pm 10.6 WNW 30 39 997.3 - 12.2 - - - - - - -
16/10:52pm 10.2 WNW 29 41 997.6 - 12.2 - - - - - - -
16/10:33pm 9.4 WNW 40 50 997.3 - 11.8 - - - - - - -
16/10:30pm 9.8 WNW 40 48 997.1 - 11.6 - - - - - - -
16/10:15pm 10.4 WNW 33 43 997.4 - 11.6 - - - - - - -
16/10:00pm 9.6 WNW 32 37 997.7 - 11.6 - - - - - - -
16/09:30pm 8.1 W 37 45 998.0 - 11.0 - - - - - - -
16/09:19pm 9.1 W 36 49 997.9 - 10.4 - - - - - - -
16/09:00pm 9.1 W 34 41 998.0 - 9.6 - - - - - - -
16/08:40pm 8.1 W 40 66 997.7 - 9.0 - - - - - - -
16/08:38pm 8.1 W 56 66 997.0 - 8.8 - - - - - - -
16/08:36pm 8.2 W 58 66 996.5 - 8.4 - - - - - - -
16/08:35pm 8.4 W 42 66 996.9 - 8.2 - - - - - - -
16/08:31pm 9.3 W 40 50 997.6 - 8.0 - - - - - - -
16/08:30pm 9.7 W 41 50 997.6 - 8.0 - - - - - - -
16/08:14pm 10.2 W 48 58 996.9 - 8.0 - - - - - - -
16/08:13pm 10.4 W 50 58 996.6 - 8.0 - - - - - - -
16/08:03pm 11.9 WNW 39 49 996.8 - 8.0 - - - - - - -
16/08:00pm 11.9 WNW 40 47 996.8 - 8.0 - - - - - - -
16/07:31pm 12.1 WNW 38 51 996.1 - 8.0 - - - - - - -
16/07:30pm 11.9 WNW 37 45 996.2 - 8.0 - - - - - - -
16/07:14pm 11.8 WNW 39 49 996.4 - 8.0 - - - - - - -
16/07:00pm 11.5 WNW 38 45 996.4 - 8.0 - - - - - - -
16/06:30pm 11.3 WNW 46 56 995.7 - 8.0 - - - - - - -
16/06:22pm 11.2 WNW 51 61 995.3 - 8.0 - - - - - - -
16/06:17pm 11.3 WNW 50 58 995.0 - 8.0 - - - - - - -
16/06:09pm 11.6 WNW 40 52 995.3 - 8.0 - - - - - - -
16/06:00pm 11.3 WNW 38 49 995.6 - 8.0 - - - - - - -
16/05:59pm 11.3 WNW 36 49 995.7 - 8.0 - - - - - - -
16/05:30pm 9.4 W 48 53 994.6 - 8.0 - - - - - - -
16/05:00pm 10.4 WNW 55 69 993.5 - 6.8 - - - - - - -
16/04:58pm 11.3 WNW 53 63 993.7 - 6.8 - - - - - - -
16/04:57pm 11.7 WNW 52 59 993.7 - 6.8 - - - - - - -
16/04:31pm 11.3 WNW 41 51 994.0 - 6.8 - - - - - - -
16/04:30pm 11.2 WNW 41 50 994.3 - 6.8 - - - - - - -
16/04:00pm 11.9 WNW 48 60 993.1 - 6.6 - - - - - - -
16/03:31pm 11.9 WNW 54 64 992.1 - 6.6 - - - - - - -
16/03:30pm 12.1 WNW 55 64 992.0 - 6.6 - - - - - - -
16/03:26pm 12.2 WNW 56 64 991.7 - 6.6 - - - - - - -
16/03:08pm 12.1 W 45 55 992.7 - 6.6 - - - - - - -
16/03:00pm 11.8 WNW 48 56 992.6 - 6.6 - - - - - - -
16/02:30pm 11.7 WNW 46 58 991.7 - 6.6 - - - - - - -
16/02:00pm 11.2 WNW 52 62 991.1 - 6.6 - - - - - - -
16/01:50pm 10.8 WNW 51 61 990.8 - 6.6 - - - - - - -
16/01:49pm 10.7 WNW 51 60 990.9 - 6.6 - - - - - - -
16/01:31pm 9.9 W 38 55 991.6 - 6.6 - - - - - - -
16/01:30pm 10.0 W 36 58 992.2 - 6.6 - - - - - - -
16/01:29pm 9.8 W 36 58 992.3 - 6.6 - - - - - - -
16/01:25pm 9.2 W 48 58 992.1 - 6.6 - - - - - - -
16/01:21pm 9.1 W 52 58 991.4 - 6.4 - - - - - - -
16/01:14pm 10.1 WNW 40 50 991.4 - 5.8 - - - - - - -
16/01:11pm 9.8 WNW 39 46 991.6 - 5.8 - - - - - - -
16/01:00pm 7.5 W 49 73 991.7 - 5.6 - - - - - - -
16/12:37pm 8.8 WNW 49 66 990.1 - 3.8 - - - - - - -
16/12:30pm 10.9 WNW 45 55 990.9 - 3.8 - - - - - - -
16/12:16pm 10.4 WNW 52 63 990.7 - 3.8 - - - - - - -
16/12:12pm 10.1 WNW 55 62 989.8 - 3.6 - - - - - - -
16/12:00pm 10.6 WNW 42 53 991.2 - 3.6 - - - - - - -
16/11:30am 11.3 WNW 48 58 990.1 - 3.2 - - - - - - -
16/11:06am 11.4 WNW 48 58 990.2 - 3.2 - - - - - - -
16/11:00am 11.2 WNW 48 56 990.3 - 3.2 - - - - - - -
16/10:57am 10.8 WNW 51 56 989.9 - 3.2 - - - - - - -
16/10:37am 9.3 WNW 40 50 990.8 - 3.0 - - - - - - -
16/10:30am 9.6 WNW 44 52 990.7 - 2.6 - - - - - - -
16/10:19am 10.5 WNW 44 60 990.1 - 2.2 - - - - - - -
16/10:06am 10.5 WNW 55 65 989.0 - 2.0 - - - - - - -
16/10:05am 10.4 WNW 57 65 988.8 - 2.0 - - - - - - -
16/10:03am 10.1 W 43 58 989.6 - 2.0 - - - - - - -
16/10:00am 10.2 W 44 52 990.0 - 2.0 - - - - - - -
16/09:30am 9.2 W 51 68 989.5 - 1.4 - - - - - - -
16/09:21am 8.9 WNW 52 68 988.8 - 0.6 - - - - - - -
16/09:14am 10.6 WNW 45 56 988.7 - 0.0 - - - - - - -
16/09:07am 10.3 WNW 45 68 988.9 - 0.0 - - - - - - -
16/09:01am 10.4 WNW 58 68 987.7 - 0.0 - - - - - - -
16/09:00am 10.5 WNW 58 67 987.7 - 10.2 - - - - - - -
16/08:57am 10.7 WNW 57 67 987.7 - 10.2 - - - - - - -
16/08:50am 10.5 WNW 41 53 988.8 - 10.0 - - - - - - -
16/08:46am 10.5 WNW 36 55 989.5 - 10.0 - - - - - - -
16/08:30am 11.1 WNW 47 57 988.8 - 9.6 - - - - - - -
16/08:00am 11.5 WNW 46 56 988.3 - 9.6 - - - - - - -
16/07:33am 11.6 WNW 48 58 988.3 - 9.6 - - - - - - -
16/07:30am 11.6 WNW 50 58 988.1 - 9.6 - - - - - - -
16/07:00am 11.4 WNW 46 58 987.5 - 9.6 - - - - - - -
16/06:30am 11.2 WNW 41 46 988.4 - 9.6 - - - - - - -
16/06:00am 11.1 WNW 38 43 988.3 - 9.6 - - - - - - -
16/05:30am 11.1 WNW 33 41 988.7 - 9.6 - - - - - - -
16/05:00am 11.4 WNW 28 31 989.2 - 9.6 - - - - - - -
16/04:30am 11.0 WNW 30 34 989.2 - 9.6 - - - - - - -
16/04:00am 11.1 WNW 31 35 989.5 - 9.6 - - - - - - -
16/03:30am 11.7 WNW 28 34 990.3 - 9.6 - - - - - - -
16/03:24am 11.7 NW 23 34 990.3 - 9.6 - - - - - - -
16/03:00am 11.5 WNW 25 27 990.7 - 9.6 - - - - - - -
16/02:30am 11.1 WNW 25 28 991.2 - 9.6 - - - - - - -
16/02:12am 10.9 WNW 24 30 991.4 - 9.6 - - - - - - -
16/02:00am 10.4 WNW 17 19 992.0 - 9.6 - - - - - - -
16/01:30am 10.5 WNW 19 23 992.7 - 9.6 - - - - - - -
16/01:00am 10.2 W 26 30 993.4 - 9.6 - - - - - - -
16/12:30am 9.9 W 32 38 993.5 - 9.4 - - - - - - -
16/12:11am 10.2 W 31 33 993.6 - 8.4 - - - - - - -
16/12:00am 10.2 W 21 26 993.8 - 7.6 - - - - - - -
 
Date/Time
EST
Temp
°C
Wind Pressure Rain since
9am
mm
Weather Cloud Vis
km
Sea
Height
m
Swell
Dir  Spd
kts
Gust
kts
hPa Trend Height
m
Period
s
Dir
15/11:30pm 10.4 W 22 25 994.2 - 6.6 - - - - - - -
15/11:00pm 10.5 W 28 33 994.8 - 4.8 - - - - - - -
15/10:43pm 10.9 W 31 41 994.4 - 3.4 - - - - - - -
15/10:30pm 11.2 W 32 41 994.6 - 3.2 - - - - - - -
15/10:24pm 11.7 W 28 39 994.5 - 3.2 - - - - - - -
15/10:00pm 12.7 W 26 34 995.2 - 3.2 - - - - - - -
15/09:30pm 12.5 WNW 23 28 994.9 - 3.2 - - - - - - -
15/09:00pm 12.4 NW 24 28 995.3 - 3.2 - - - - - - -
15/08:30pm 12.7 NW 26 33 995.1 - 3.0 - - - - - - -
15/08:00pm 12.7 NW 21 26 995.1 - 2.4 - - - - - - -
15/07:30pm 12.7 NW 25 32 995.3 - 2.0 - - - - - - -
15/07:00pm 12.8 WNW 28 36 995.6 - 1.8 - - - - - - -
15/06:30pm 13.4 WNW 32 38 995.5 - 1.6 - - - - - - -
15/06:00pm 13.1 WNW 31 35 995.5 - 1.6 - - - - - - -
15/05:30pm 13.1 WNW 34 38 995.6 - 1.6 - - - - - - -
15/05:00pm 13.7 WNW 31 38 995.6 - 1.6 - - - - - - -
15/04:53pm 13.8 NW 28 38 996.0 - 1.6 - - - - - - -
15/04:30pm 13.8 NW 25 31 996.5 - 1.6 - - - - - - -
15/04:00pm 13.7 NNW 23 28 996.6 - 1.6 - - - - - - -
15/03:30pm 13.5 NNW 22 27 996.9 - 1.6 - - - - - - -
15/03:00pm 13.8 NW 28 35 997.1 - 1.6 - - - - - - -
15/02:56pm 13.8 NW 29 37 997.0 - 1.6 - - - - - - -
15/02:30pm 13.1 NNW 21 28 997.9 - 1.6 - - - - - - -
15/02:00pm 13.8 N 19 25 998.3 - 1.6 - - - - - - -
15/01:30pm 12.2 N 21 27 998.6 - 1.4 - - - - - - -
15/01:00pm 12.5 N 19 23 998.8 - 1.4 - - - - - - -
15/12:30pm 12.7 N 18 24 999.7 - 1.0 - - - - - - -
15/12:00pm 11.5 N 16 18 1000.6 - 1.0 - - - - - - -
15/11:30am 11.0 N 16 19 1001.7 - 1.0 - - - - - - -
15/11:00am 11.5 N 20 25 1002.9 - 0.2 - - - - - - -
15/10:30am 12.2 N 20 26 1003.2 - 0.0 - - - - - - -
15/10:00am 11.8 N 19 22 1003.7 - 0.0 - - - - - - -
15/09:30am 11.7 NNE 19 22 1004.5 - 0.0 - - - - - - -
15/09:00am 11.7 NNE 18 21 1005.1 - 0.4 - - - - - - -
15/08:30am 11.8 NNE 16 19 1005.3 - 0.4 - - - - - - -
15/08:00am 11.3 NNE 18 22 1005.6 - 0.4 - - - - - - -
15/07:30am 11.3 NE 17 21 1006.2 - 0.4 - - - - - - -
15/07:00am 11.0 NNE 18 21 1006.5 - 0.4 - - - - - - -
15/06:30am 10.9 N 19 22 1007.3 - 0.4 - - - - - - -
15/06:00am 10.7 N 19 23 1007.5 - 0.4 - - - - - - -
15/05:52am 10.7 N 18 23 1007.4 - 0.4 - - - - - - -
15/05:30am 10.2 NE 11 13 1007.2 - 0.4 - - - - - - -
15/05:00am 10.2 NNE 11 12 1008.2 - 0.2 - - - - - - -
15/04:30am 10.4 NE 11 13 1008.6 - 0.2 - - - - - - -
15/04:00am 10.5 NNE 11 11 1008.9 - 0.2 - - - - - - -
15/03:30am 10.5 N 10 12 1009.5 - 0.2 - - - - - - -
15/03:00am 10.7 N 10 11 1009.8 - 0.2 - - - - - - -
15/02:30am 9.9 N 7 9 1010.0 - 0.2 - - - - - - -
15/02:00am 10.3 NNW 5 6 1010.2 - 0.0 - - - - - - -
15/01:30am 10.4 NNW 5 6 1011.0 - 0.0 - - - - - - -
15/01:00am 10.5 NW 7 8 1011.3 - 0.0 - - - - - - -
15/12:30am 10.6 NW 7 10 1011.6 - 0.0 - - - - - - -
15/12:00am 11.0 WNW 9 11 1011.9 - 0.0 - - - - - - -
 
Date/Time
EST
Temp
°C
Wind Pressure Rain since
9am
mm
Weather Cloud Vis
km
Sea
Height
m
Swell
Dir  Spd
kts
Gust
kts
hPa Trend Height
m
Period
s
Dir
14/11:30pm 11.1 WNW 10 12 1012.1 - 0.0 - - - - - - -
14/11:00pm 11.1 W 15 16 1012.0 - 0.0 - - - - - - -
14/10:30pm 11.2 W 15 17 1012.2 - 0.0 - - - - - - -
14/10:00pm 11.3 WNW 13 15 1012.4 - 0.0 - - - - - - -
14/09:30pm 11.3 WNW 14 16 1012.5 - 0.0 - - - - - - -
14/09:00pm 11.3 W 13 15 1012.7 - 0.0 - - - - - - -
14/08:30pm 11.3 W 15 17 1012.3 - 0.0 - - - - - - -
14/08:00pm 11.5 W 15 17 1012.3 - 0.0 - - - - - - -
14/07:30pm 11.5 W 16 18 1012.3 - 0.0 - - - - - - -
14/07:00pm 11.9 W 18 20 1012.2 - 0.0 - - - - - - -
14/06:30pm 11.9 W 21 23 1012.1 - 0.0 - - - - - - -
14/06:00pm 12.1 W 22 25 1012.1 - 0.0 - - - - - - -

Other Formats:

Comma delimited format used in spreadsheet applications
http://www.bom.gov.au/fwo/IDT60701/IDT60701.94949.axf

JavaScript Object Notation format (JSON) in row-major order
http://www.bom.gov.au/fwo/IDT60701/IDT60701.94949.json